Aviation Digital Data Service (ADDS)

Output produced by METARs form (1202 UTC 16 July 2019)
found at http://www.aviationweather.gov/metar/data/
 
RKSG 161158Z 27002KT 2SM BR BKN095 25/21 A2987 RMK AO2A SLP112 WND DATA ESTMD 70004 T02490206 10301 20245 53012
TAF RKSG 161100Z 1611/1717 VRB06KT 3200 BR BKN090 QNH2982INS 
     BECMG 1615/1616 VRB03KT 2400 BR SCT010 BKN050 QNH2985INS 
     BECMG 1617/1618 VRB03KT 2400 BR BKN010 BKN050 QNH2986INS 
     BECMG 1622/1623 VRB06KT 3200 -DZ BR BKN010 BKN060 QNH2987INS 
     BECMG 1700/1701 30009KT 4800 HZ OVC020 QNH2988INS 
     BECMG 1703/1704 VRB03KT 4800 HZ OVC030 QNH2984INS 
     BECMG 1711/1712 VRB03KT 3200 HZ BKN010 QNH2984INS TX28/1706Z TN21/1619Z
       
RKTU 161100Z 03002KT 8000 NSC 26/22 Q1010
TAF COR RKTU 161100Z 1612/1718 27006KT 8000 NSC TN19/1621Z TX31/1706Z 
     BECMG 1615/1616 4800 BR 
     BECMG 1618/1619 3200 BKN030 BKN100 
     BECMG 1620/1621 BKN020 BKN030 
     BECMG 1700/1701 18006KT 4800 SCT030 BKN200 
     BECMG 1703/1704 9999 NSW BKN030 BKN200 
     BECMG 1709/1710 SCT030 BKN200
       
RKTN 161100Z 11007KT 9999 FEW030 25/20 Q1010
TAF RKTN 161100Z 1612/1718 12006KT 9999 FEW040 BKN200 TN21/1621Z TX30/1706Z 
     BECMG 1712/1713 CAVOK
       
RKPK 161100Z 09007KT 9999 FEW030 25/19 Q1010
TAF RKPK 161100Z 1612/1718 06006KT 9999 SCT040 BKN200 TN21/1620Z TX29/1705Z 
     BECMG 1614/1615 33006KT 
     BECMG 1702/1703 18008KT 
     BECMG 1711/1712 12006KT CAVOK 
     BECMG 1715/1716 12008KT 4800 -RA BR BKN030 OVC100
       
RKSS 161100Z 29007KT 4000 BR NSC 24/22 Q1010 NOSIG
TAF RKSS 161100Z 1612/1718 27005KT 6000 SCT030 BKN180 TN21/1620Z TX29/1706Z 
     BECMG 1614/1615 36005KT 3500 BR SCT010 SCT030 BKN180 
     TEMPO 1619/1622 03005KT 2100 
     BECMG 1623/1624 12005KT 6000 NSW SCT030 BKN180 
     BECMG 1703/1704 27006KT 
     BECMG 1714/1715 30005KT 3500 BR
       
RKSI 161130Z 33003KT 3000 BR NSC 23/19 Q1010 NOSIG
TAF RKSI 161100Z 1612/1718 28007KT 4200 BR SCT030 TN22/1621Z TX29/1705Z 
     BECMG 1614/1615 2800 
     BECMG 1620/1621 07005KT CAVOK 
     BECMG 1702/1703 33007KT
       
RKPC 161100Z 07009KT CAVOK 23/21 Q1010 NOSIG
TAF RKPC 161100Z 1612/1718 08015G25KT 6000 NSC TN21/1620Z TX27/1703Z 
     BECMG 1613/1614 09007KT FEW030 BKN180 
     BECMG 1700/1701 07015G25KT 
     BECMG 1709/1710 09007KT FEW010 BKN025 OVC100 
     BECMG 1711/1712 4200 -RA
       
RKJK 161156Z AUTO 34003KT 3SM BR CLR 23/23 A2984 RMK AO2 SLP109 T02320232 10272 20232 51008 $
TAF RKJK 160700Z 1607/1713 VRB06KT 6000 BR SCT020 QNH2980INS 
     BECMG 1614/1615 VRB06KT 4800 BR BKN020 QNH2986INS 
     BECMG 1700/1701 VRB06KT 9999 NSW BKN020 QNH2984INS 
     BECMG 1711/1712 VRB06KT 8000 -SHRA BKN020 QNH2985INS TX28/1704Z TN21/1619Z
       
RKSO 161058Z 00000KT 5SM HZ FEW080 FEW200 26/21 A2982 RMK AO2A SLP101 T02550208 $
TAF RKSO 161100Z 1611/1717 VRB06KT 9000 BR BKN030 QNH2979INS 
     BECMG 1612/1613 VRB06KT 4800 BR SCT015 BKN030 QNH2986INS 
     BECMG 1622/1623 VRB06KT 6000 HZ BKN010 QNH2990INS 
     BECMG 1712/1713 VRB06KT 8000 BR BKN010 QNH2987INS TX32/1706Z TN20/1620Z
       
RKSM 161100Z 30005KT 8000 BR FEW030 SCT200 26/21 A2983
TAF RKSM 161100Z 1612/1718 27006KT 8000 BR SCT030 BKN200 
     BECMG 1617/1618 24006KT 4800 BR BKN015 
     BECMG 1700/1701 27006KT 4800 BR BKN030 VIS 9999 NSW AFT 1704 TN22/1621Z
TX31/1706Z
       
RKNY 161100Z 12002KT 9999 BKN025 BKN120 21/20 Q1012 NOSIG
TAF RKNY 161100Z 1612/1718 14006KT 6000 SCT010 BKN025 OVC100 TN20/1621Z
TX26/1705Z 
     BECMG 1613/1614 3500 BR 
     BECMG 1623/1624 11006KT 7000 NSW SCT030 BKN120 
     BECMG 1712/1713 4200 BR 
     BECMG 1717/1718 25006KT